createdAt,value
2022-10-16T16:22:08.172Z,19.90
2022-10-16T16:32:14.288Z,30.20
2022-10-16T16:42:17.920Z,57.50
2022-10-16T16:52:20.937Z,40.90
2022-10-16T17:02:24.090Z,39.70
2022-10-16T17:12:27.081Z,37.50
2022-10-16T17:22:30.289Z,40.60
2022-10-16T17:32:33.762Z,32.70
2022-10-16T17:42:36.818Z,24.20
2022-10-16T17:52:39.884Z,21.60
2022-10-16T18:02:43.524Z,26.50
2022-10-16T18:12:49.943Z,25.40
2022-10-16T18:22:54.428Z,22.70
2022-10-16T18:32:57.483Z,21.00
2022-10-16T18:43:00.613Z,20.50
2022-10-16T18:53:03.646Z,23.80
2022-10-16T19:03:06.698Z,20.50
2022-10-16T19:13:11.060Z,21.70
2022-10-16T19:23:14.505Z,25.10
2022-10-16T19:33:17.583Z,21.80
2022-10-16T19:43:20.554Z,22.50
2022-10-16T19:53:23.629Z,21.10
2022-10-16T20:03:26.640Z,21.50
2022-10-16T20:13:30.150Z,21.10
2022-10-16T20:23:33.970Z,22.80
2022-10-16T20:33:39.294Z,20.70
2022-10-16T20:43:47.965Z,21.70
2022-10-16T20:53:57.137Z,22.10
2022-10-16T21:04:02.858Z,20.80
2022-10-16T21:14:08.394Z,20.20
2022-10-16T21:24:13.704Z,21.10
2022-10-16T21:34:19.827Z,23.00
2022-10-16T21:44:23.100Z,24.40
2022-10-16T21:54:26.037Z,24.20
2022-10-16T22:04:29.085Z,23.60
2022-10-16T22:14:32.112Z,22.40
2022-10-16T22:24:35.166Z,23.80
2022-10-16T22:34:38.168Z,20.90
2022-10-16T22:44:41.361Z,23.50
2022-10-16T22:54:44.296Z,25.20
2022-10-16T23:04:47.354Z,21.30
2022-10-16T23:14:50.932Z,23.20
2022-10-16T23:24:53.908Z,21.50
2022-10-16T23:34:56.957Z,20.50
2022-10-16T23:44:59.973Z,22.20
2022-10-16T23:55:03.151Z,24.10
